METAR

ENBN 210320Z AUTO 19014KT 9999NDV -SHRA FEW009/// OVC016/// 12/10 Q1012

ENMS 202050Z 23004KT 180V260 9999 -SHRA FEW032TCU SCT036 BKN044 13/09 Q1010 RMK WIND 412FT 18005KT 150V210

ENNM 201950Z 19006KT 9999 SCT034 BKN045 15/09 Q1011

ENOL 210350Z 23021KT 9999 7000S -SHRA SCT020CB BKN030 12/09 Q1015

ENST 210350Z 18017KT 9999 -SHRA FEW006 SCT012 BKN018 12/11 Q1011 RMK WIND 300FT 19021KT

ENVA 210350Z 14003KT 9999 FEW035 BKN051 11/10 Q1016 RMK WIND 670FT 21008KT



TAF

TAF ENVA 201700Z 2018/2118 26010KT 9999 FEW030TCU SCT040 TEMPO 2018/2021 SHRA BKN020CB BECMG 2018/2020 VRB05KT PROB30 TEMPO 2103/2118 SHRA BKN025CB BECMG 2107/2109 27010KT